Time;durP1;ratioP1;P1;durP2;ratioP2;P2;SDS_P1;SDS_P2;PMS_P1;PMS_P2;Temp;Humidity;BMP_temperature;BMP_pressure;BME280_temperature;BME280_humidity;BME280_pressure;Samples;Min_cycle;Max_cycle;Signal;HPM_P1;HPM_P2
2023/03/15 00:00:19;;;;;;;75.97;21.42;;;3.60;99.90;;;2.26;100.00;96909.69;4917452;29;20409;-77
2023/03/15 00:02:45;;;;;;;66.30;20.57;;;3.50;99.90;;;2.19;100.00;96914.94;4917268;29;20421;-76
2023/03/15 00:05:12;;;;;;;65.03;22.23;;;3.50;99.90;;;2.20;100.00;96923.59;4917482;29;20409;-76
2023/03/15 00:07:38;;;;;;;71.22;22.63;;;3.40;99.90;;;2.13;100.00;96922.81;4917403;29;20476;-76
2023/03/15 00:10:05;;;;;;;65.72;20.08;;;3.40;99.90;;;2.03;100.00;96933.69;4917274;29;21070;-76
2023/03/15 00:12:33;;;;;;;74.13;22.02;;;3.30;99.90;;;2.07;100.00;96939.31;4917083;29;20583;-76
2023/03/15 00:15:00;;;;;;;79.70;23.52;;;3.30;99.90;;;2.07;100.00;96954.97;4917391;29;20468;-77
2023/03/15 00:17:26;;;;;;;75.45;21.95;;;3.20;99.90;;;1.99;100.00;96960.44;4917367;29;20427;-76
2023/03/15 00:19:52;;;;;;;79.30;22.33;;;3.20;99.90;;;1.98;100.00;96964.84;4917439;29;20406;-77
2023/03/15 00:22:18;;;;;;;70.05;21.83;;;3.20;99.90;;;2.02;100.00;96984.31;4917393;29;20410;-76
2023/03/15 00:24:44;;;;;;;79.32;22.88;;;3.30;99.90;;;2.05;100.00;96981.28;4917367;29;20508;-76
2023/03/15 00:27:10;;;;;;;87.50;21.80;;;3.30;99.90;;;2.04;100.00;96982.28;4917220;29;20433;-77
2023/03/15 00:29:36;;;;;;;87.47;23.02;;;3.30;99.90;;;2.10;100.00;96976.25;4917334;29;20433;-77
2023/03/15 00:32:04;;;;;;;89.03;24.05;;;3.30;99.90;;;2.10;100.00;96981.50;4916976;29;20424;-77
2023/03/15 00:34:32;;;;;;;86.70;23.23;;;3.30;99.90;;;2.11;100.00;96990.09;4917218;29;20501;-77
2023/03/15 00:36:58;;;;;;;95.78;23.17;;;3.40;99.90;;;2.11;100.00;96987.47;4917398;29;20467;-76
2023/03/15 00:39:24;;;;;;;91.78;22.85;;;3.30;99.90;;;2.13;100.00;96990.69;4917321;29;20413;-77
2023/03/15 00:41:50;;;;;;;82.55;22.58;;;3.40;99.90;;;2.17;100.00;96995.31;4916781;29;20416;-77
2023/03/15 00:44:17;;;;;;;80.20;22.10;;;3.40;99.90;;;2.21;100.00;97003.53;4917234;29;20469;-77
2023/03/15 00:46:43;;;;;;;69.07;20.92;;;3.40;99.90;;;2.19;100.00;97005.53;4917177;29;20414;-76
2023/03/15 00:49:10;;;;;;;73.95;20.52;;;3.40;99.90;;;2.07;100.00;97004.59;4917087;29;20911;-76
2023/03/15 00:51:36;;;;;;;73.88;20.95;;;3.30;99.90;;;2.03;100.00;97012.00;4916820;29;20808;-76
2023/03/15 00:54:02;;;;;;;73.93;20.67;;;3.30;99.90;;;1.97;100.00;97023.28;4917096;29;20500;-77
2023/03/15 00:56:31;;;;;;;75.65;20.20;;;3.20;99.90;;;1.99;100.00;97025.69;4916927;29;20429;-77
2023/03/15 00:58:57;;;;;;;74.00;20.33;;;3.20;99.90;;;1.90;100.00;97030.31;4916946;29;20444;-77
2023/03/15 01:01:26;;;;;;;78.13;19.38;;;3.20;99.90;;;1.87;100.00;97038.59;4916383;29;20439;-76
2023/03/15 01:03:53;;;;;;;65.63;18.13;;;3.10;99.90;;;1.87;100.00;97034.16;4916463;29;20543;-76
2023/03/15 01:06:23;;;;;;;56.08;16.42;;;3.10;99.90;;;1.84;100.00;97031.94;4915060;29;20457;-76
2023/03/15 01:08:50;;;;;;;61.75;17.65;;;3.10;99.90;;;1.90;100.00;97043.38;4916315;29;20448;-76
2023/03/15 01:11:23;;;;;;;60.00;16.58;;;3.10;99.90;;;1.86;100.00;97044.81;4916165;29;20826;-76
2023/03/15 01:13:50;;;;;;;50.87;15.07;;;3.10;99.90;;;1.74;100.00;97049.03;4916266;29;20468;-76
2023/03/15 01:16:16;;;;;;;47.97;15.45;;;3.00;99.90;;;1.65;100.00;97051.06;4916236;29;20426;-76
2023/03/15 01:18:42;;;;;;;58.58;16.70;;;3.00;99.90;;;1.60;100.00;97053.47;4916277;29;20465;-76
2023/03/15 01:21:11;;;;;;;56.92;16.73;;;2.80;99.90;;;1.48;100.00;97050.69;4915998;29;20806;-76
2023/03/15 01:23:38;;;;;;;57.83;16.53;;;2.70;99.90;;;1.44;100.00;97057.28;4915862;29;20605;-76
2023/03/15 01:26:09;;;;;;;52.27;15.47;;;2.70;99.90;;;1.40;100.00;97063.13;4916128;29;20516;-76
2023/03/15 01:28:35;;;;;;;54.70;15.63;;;2.60;99.90;;;1.36;100.00;97061.88;4915985;29;20839;-76
2023/03/15 01:31:02;;;;;;;49.20;14.82;;;2.60;99.90;;;1.34;100.00;97056.09;4914392;29;20512;-76
2023/03/15 01:33:28;;;;;;;57.42;15.65;;;2.60;99.90;;;1.31;100.00;97057.28;4915711;29;20448;-76
2023/03/15 01:35:59;;;;;;;59.22;16.67;;;2.60;99.90;;;1.32;100.00;97065.91;4915821;29;20435;-76
2023/03/15 01:38:25;;;;;;;60.30;16.73;;;2.60;99.90;;;1.19;100.00;97066.72;4915837;29;20441;-75
2023/03/15 01:40:52;;;;;;;48.92;15.30;;;2.50;99.90;;;1.22;100.00;97066.31;4915712;29;20496;-75
2023/03/15 01:43:21;;;;;;;50.78;16.17;;;2.50;99.90;;;1.16;100.00;97065.31;4915538;29;20421;-75
2023/03/15 01:46:03;;;;;;;60.58;16.98;;;2.50;99.90;;;1.25;100.00;97065.91;4915582;29;20445;-76
2023/03/15 01:48:38;;;;;;;54.20;15.90;;;2.50;99.90;;;1.17;100.00;97076.53;4896801;29;20414;-75
2023/03/15 01:51:10;;;;;;;55.20;15.52;;;2.40;99.90;;;1.04;100.00;97077.34;4895294;29;20449;-75
2023/03/15 01:53:41;;;;;;;42.53;14.63;;;2.40;99.90;;;1.11;100.00;97079.94;4895211;29;20511;-75
2023/03/15 01:56:09;;;;;;;50.30;14.40;;;2.40;99.90;;;1.06;100.00;97082.31;4896649;29;20416;-75
2023/03/15 01:58:37;;;;;;;38.78;13.90;;;2.30;99.90;;;0.97;100.00;97088.75;4896611;29;20430;-75
2023/03/15 02:01:03;;;;;;;44.57;13.40;;;2.20;99.90;;;0.92;100.00;97091.91;4896417;29;20491;-75
2023/03/15 02:03:34;;;;;;;32.00;11.68;;;2.20;99.90;;;0.87;100.00;97080.50;4896299;29;20416;-75
2023/03/15 02:06:07;;;;;;;33.78;12.48;;;2.20;99.90;;;0.99;100.00;97094.53;4896573;29;20917;-76
2023/03/15 02:08:38;;;;;;;43.33;12.85;;;2.20;99.90;;;1.00;100.00;97091.75;4896498;29;20785;-75
2023/03/15 02:11:05;;;;;;;35.97;12.13;;;2.30;99.90;;;1.03;100.00;97098.38;4896258;29;20421;-75
2023/03/15 02:13:35;;;;;;;32.63;11.20;;;2.30;99.90;;;0.91;100.00;97097.31;4896139;29;20890;-76
2023/03/15 02:16:05;;;;;;;34.60;11.18;;;2.20;99.90;;;0.95;100.00;97095.94;4895935;29;20442;-76
2023/03/15 02:18:34;;;;;;;32.10;11.55;;;2.20;99.90;;;0.87;100.00;97101.34;4896195;29;20410;-75
2023/03/15 02:21:13;;;;;;;27.42;9.80;;;2.10;99.90;;;0.74;100.00;97095.09;4896128;29;20823;-76
2023/03/15 02:23:40;;;;;;;32.30;10.55;;;2.00;99.90;;;0.80;100.00;97092.69;4894794;29;20841;-76
2023/03/15 02:26:16;;;;;;;31.02;9.73;;;2.10;99.90;;;0.73;100.00;97101.31;4896223;29;21181;-76
2023/03/15 02:28:45;;;;;;;31.40;9.80;;;2.00;99.90;;;0.70;100.00;97101.69;4895965;29;20419;-76
2023/03/15 02:31:11;;;;;;;29.38;10.13;;;2.00;99.90;;;0.73;100.00;97109.13;4895726;29;20502;-76
2023/03/15 02:33:42;;;;;;;25.73;8.65;;;2.00;99.90;;;0.77;100.00;97106.91;4895726;29;20892;-76
2023/03/15 02:36:17;;;;;;;29.60;8.77;;;2.10;99.90;;;0.72;100.00;97115.31;4895984;29;20407;-76
2023/03/15 02:38:43;;;;;;;27.65;8.73;;;2.00;99.90;;;0.66;100.00;97117.91;4895963;29;20913;-76
2023/03/15 02:41:10;;;;;;;27.63;8.57;;;1.90;99.90;;;0.61;100.00;97125.47;4895671;29;20494;-76
2023/03/15 02:43:37;;;;;;;32.55;8.85;;;1.80;99.90;;;0.64;100.00;97125.91;4895571;29;20418;-76
2023/03/15 02:46:05;;;;;;;26.10;8.48;;;1.90;99.90;;;0.59;100.00;97132.72;4895841;29;20545;-76
2023/03/15 02:48:33;;;;;;;40.92;9.82;;;1.80;99.90;;;0.64;100.00;97138.13;4895739;29;20491;-76
2023/03/15 02:51:02;;;;;;;32.20;8.98;;;1.90;99.90;;;0.58;100.00;97138.91;4895647;29;20403;-76
2023/03/15 02:53:28;;;;;;;30.15;8.27;;;1.80;99.90;;;0.56;100.00;97141.69;4895520;29;20419;-76
2023/03/15 02:55:54;;;;;;;33.22;8.35;;;1.80;99.90;;;0.45;100.00;97149.28;4895654;29;20418;-76
2023/03/15 02:58:20;;;;;;;29.25;8.80;;;1.70;99.90;;;0.46;100.00;97154.25;4895643;29;20415;-76
2023/03/15 03:00:46;;;;;;;29.23;8.13;;;1.70;99.90;;;0.42;100.00;97162.66;4895543;29;20494;-76
2023/03/15 03:03:14;;;;;;;30.08;8.60;;;1.70;99.90;;;0.39;100.00;97169.84;4895421;29;20759;-76
2023/03/15 03:05:40;;;;;;;25.92;8.43;;;1.60;99.90;;;0.34;100.00;97174.84;4895535;29;20422;-76
2023/03/15 03:08:06;;;;;;;30.08;8.57;;;1.60;99.90;;;0.29;100.00;97179.84;4895564;29;20806;-76
2023/03/15 03:10:31;;;;;;;33.97;9.32;;;1.60;99.90;;;0.32;100.00;97182.03;4894066;29;20800;-76
2023/03/15 03:12:57;;;;;;;23.45;8.23;;;1.60;99.90;;;0.24;100.00;97189.19;4895092;29;20415;-76
2023/03/15 03:15:23;;;;;;;32.73;9.03;;;1.60;99.90;;;0.23;100.00;97195.38;4895333;29;20411;-76
2023/03/15 03:17:49;;;;;;;21.73;7.72;;;1.50;99.90;;;0.12;100.00;97195.91;4895452;29;20470;-76
2023/03/15 03:20:18;;;;;;;27.30;8.27;;;1.50;99.90;;;0.15;100.00;97201.53;4895312;29;20410;-76
2023/03/15 03:22:45;;;;;;;31.25;8.30;;;1.50;99.90;;;0.21;100.00;97200.81;4895129;29;20504;-76
2023/03/15 03:25:11;;;;;;;27.33;8.75;;;1.50;99.90;;;0.10;100.00;97206.50;4895327;29;20415;-76
2023/03/15 03:27:39;;;;;;;32.33;8.82;;;1.50;99.90;;;0.08;100.00;97212.88;4895270;29;20406;-76
2023/03/15 03:32:44;;;;;;;28.63;8.20;;;1.40;99.90;;;-0.03;100.00;97206.41;4915147;29;20437;-76
2023/03/15 03:35:10;;;;;;;31.63;10.65;;;1.30;99.90;;;0.02;100.00;97226.66;4915959;29;20418;-76
2023/03/15 03:37:37;;;;;;;32.92;10.05;;;1.30;99.90;;;0.02;100.00;97230.06;4917593;29;20409;-76
2023/03/15 03:40:07;;;;;;;47.53;12.33;;;1.30;99.90;;;0.00;100.00;97232.06;4917798;29;20564;-77
2023/03/15 03:42:33;;;;;;;51.88;12.77;;;1.30;99.90;;;-0.03;100.00;97232.44;4898679;29;20407;-76
2023/03/15 03:44:59;;;;;;;34.87;10.50;;;1.20;99.90;;;-0.12;100.00;97233.56;4898904;29;20425;-77
2023/03/15 03:47:25;;;;;;;50.88;13.38;;;1.20;99.90;;;-0.07;100.00;97236.38;4898997;29;20419;-76
2023/03/15 03:49:51;;;;;;;33.85;11.18;;;1.30;99.90;;;-0.14;100.00;97245.94;4898957;29;20427;-76
2023/03/15 03:52:17;;;;;;;46.00;14.15;;;1.20;99.90;;;-0.12;100.00;97241.38;4898612;29;20483;-76
2023/03/15 03:54:44;;;;;;;49.83;13.60;;;1.30;99.90;;;-0.08;100.00;97250.41;4898310;29;20928;-76
2023/03/15 03:57:10;;;;;;;48.63;13.88;;;1.20;99.90;;;-0.11;100.00;97249.00;4898518;29;20422;-77
2023/03/15 03:59:36;;;;;;;35.85;12.48;;;1.20;99.90;;;-0.19;100.00;97248.31;4898632;29;20991;-76
2023/03/15 04:02:02;;;;;;;47.07;13.63;;;1.20;99.90;;;-0.18;100.00;97258.53;4898149;29;20419;-76
2023/03/15 04:04:28;;;;;;;55.03;15.88;;;1.20;99.90;;;-0.15;100.00;97262.56;4898559;29;20470;-77
2023/03/15 04:06:54;;;;;;;54.67;17.23;;;1.10;99.90;;;-0.18;100.00;97268.13;4898715;29;20821;-76
2023/03/15 04:09:20;;;;;;;49.30;15.45;;;1.10;99.90;;;-0.15;100.00;97280.78;4898645;29;20570;-76
2023/03/15 04:11:48;;;;;;;46.42;16.80;;;1.10;99.90;;;-0.19;100.00;97274.31;4898317;29;20423;-76
2023/03/15 04:14:14;;;;;;;54.45;17.48;;;1.10;99.90;;;-0.20;100.00;97289.13;4898763;29;20893;-76
2023/03/15 04:16:40;;;;;;;55.70;17.38;;;1.10;99.90;;;-0.26;100.00;97292.47;4898641;29;20503;-76
2023/03/15 04:19:06;;;;;;;55.85;18.63;;;1.00;99.90;;;-0.31;100.00;97294.81;4898770;29;20882;-76
2023/03/15 04:21:33;;;;;;;52.50;17.02;;;0.90;99.90;;;-0.31;100.00;97299.22;4898181;29;20477;-77
2023/03/15 04:23:59;;;;;;;65.93;20.13;;;1.00;99.90;;;-0.28;100.00;97302.25;4898717;29;20411;-76
2023/03/15 04:26:26;;;;;;;65.65;19.98;;;1.00;99.90;;;-0.26;100.00;97299.47;4897231;29;20923;-76
2023/03/15 04:28:55;;;;;;;66.97;21.10;;;1.00;99.90;;;-0.30;100.00;97308.63;4898560;29;20414;-76
2023/03/15 04:31:25;;;;;;;64.18;21.60;;;0.90;99.90;;;-0.32;100.00;97300.19;4898265;29;20479;-76
2023/03/15 04:33:52;;;;;;;67.20;21.95;;;0.90;99.90;;;-0.34;100.00;97310.78;4898498;29;20422;-77
2023/03/15 04:36:18;;;;;;;57.22;19.42;;;0.90;99.90;;;-0.37;100.00;97311.13;4896986;29;20753;-76
2023/03/15 04:38:45;;;;;;;53.92;19.92;;;0.90;99.90;;;-0.40;100.00;97308.91;4898387;29;20518;-76
2023/03/15 04:41:11;;;;;;;59.63;19.77;;;0.90;99.90;;;-0.44;100.00;97312.84;4897786;29;20446;-77
2023/03/15 04:43:37;;;;;;;51.28;18.08;;;0.90;99.90;;;-0.47;100.00;97314.06;4898224;29;20415;-75
2023/03/15 04:46:05;;;;;;;54.33;17.37;;;0.90;99.90;;;-0.49;100.00;97320.41;4898182;29;20411;-76
2023/03/15 04:48:31;;;;;;;45.90;15.97;;;0.90;99.90;;;-0.54;100.00;97320.97;4894617;29;20501;-76
2023/03/15 04:50:57;;;;;;;57.92;17.80;;;0.90;99.90;;;-0.52;100.00;97318.16;4897977;29;20478;-76
2023/03/15 04:53:23;;;;;;;66.67;21.80;;;0.90;99.90;;;-0.46;100.00;97320.06;4897967;29;20844;-76
2023/03/15 04:55:49;;;;;;;62.20;20.90;;;0.80;99.90;;;-0.44;100.00;97312.84;4897961;29;20423;-77
2023/03/15 04:58:15;;;;;;;60.88;21.20;;;0.80;99.90;;;-0.52;100.00;97310.38;4898011;29;20423;-77
2023/03/15 05:00:40;;;;;;;65.65;23.48;;;0.80;99.90;;;-0.49;100.00;97318.63;4897525;29;20411;-76
2023/03/15 05:03:08;;;;;;;67.50;22.15;;;0.80;99.90;;;-0.52;100.00;97321.56;4894481;29;20419;-76
2023/03/15 05:05:34;;;;;;;62.80;22.52;;;0.80;99.90;;;-0.56;100.00;97312.53;4896741;29;20905;-76
2023/03/15 05:08:00;;;;;;;79.20;25.88;;;0.80;99.90;;;-0.54;100.00;97314.97;4887772;29;20425;-75
2023/03/15 05:10:28;;;;;;;67.45;24.55;;;0.70;99.90;;;-0.61;100.00;97311.47;4886749;29;20426;-76
2023/03/15 05:12:55;;;;;;;76.88;25.75;;;0.70;99.90;;;-0.63;100.00;97311.66;4888389;29;21156;-76
2023/03/15 05:15:21;;;;;;;81.78;26.17;;;0.70;99.90;;;-0.59;100.00;97320.69;4887804;29;20906;-76
2023/03/15 05:17:47;;;;;;;70.43;25.05;;;0.70;99.90;;;-0.67;100.00;97320.00;4886759;29;20426;-76
2023/03/15 05:20:15;;;;;;;78.97;25.63;;;0.60;99.90;;;-0.66;100.00;97314.63;4889413;29;20473;-76
2023/03/15 05:22:42;;;;;;;75.07;25.00;;;0.60;99.90;;;-0.71;100.00;97316.16;4887668;29;20818;-77
2023/03/15 05:25:10;;;;;;;64.18;24.35;;;0.50;99.90;;;-0.77;100.00;97322.88;4888312;29;20494;-75
2023/03/15 05:27:36;;;;;;;65.20;24.60;;;0.50;99.90;;;-0.81;100.00;97319.84;4886950;29;20420;-76
2023/03/15 05:30:04;;;;;;;76.10;25.15;;;0.50;99.90;;;-0.82;100.00;97309.63;4886609;29;20782;-76
2023/03/15 05:32:33;;;;;;;69.38;23.15;;;0.50;99.90;;;-0.84;100.00;97316.81;4887624;29;20419;-75
2023/03/15 05:34:59;;;;;;;75.68;25.25;;;0.50;99.90;;;-0.86;100.00;97324.78;4887108;29;20415;-75
2023/03/15 05:37:27;;;;;;;69.05;24.00;;;0.50;99.90;;;-0.84;100.00;97335.00;4889248;29;20410;-76
2023/03/15 05:39:53;;;;;;;72.07;24.70;;;0.50;99.90;;;-0.88;100.00;97334.53;4887489;29;20415;-76
2023/03/15 05:42:24;;;;;;;63.78;22.10;;;0.50;99.90;;;-0.96;100.00;97336.41;4886700;29;20425;-76
2023/03/15 05:44:51;;;;;;;64.93;22.02;;;0.40;99.90;;;-0.94;100.00;97332.66;4890136;29;20429;-75
2023/03/15 05:47:16;;;;;;;58.60;21.00;;;0.50;99.90;;;-1.00;100.00;97330.78;4884603;29;20499;-76
2023/03/15 05:49:42;;;;;;;53.57;20.80;;;0.40;99.90;;;-1.00;100.00;97337.78;4886039;29;20432;-76
2023/03/15 05:52:08;;;;;;;49.60;20.52;;;0.40;99.90;;;-1.04;100.00;97332.13;4884954;29;20476;-75
2023/03/15 05:54:36;;;;;;;67.20;22.27;;;0.40;99.90;;;-1.00;100.00;97335.97;4886926;29;20456;-76
2023/03/15 05:57:02;;;;;;;61.58;22.80;;;0.40;99.90;;;-0.98;100.00;97341.00;4887857;29;20485;-76
2023/03/15 05:59:28;;;;;;;63.78;22.48;;;0.50;99.90;;;-0.99;100.00;97336.78;4878146;29;20419;-76
2023/03/15 06:01:54;;;;;;;68.50;22.30;;;0.40;99.90;;;-1.01;100.00;97330.97;4877774;29;20416;-76
2023/03/15 06:04:20;;;;;;;69.78;22.85;;;0.40;99.90;;;-0.99;100.00;97329.81;4877983;29;20419;-76
2023/03/15 06:06:46;;;;;;;79.20;25.90;;;0.40;99.90;;;-0.94;100.00;97334.44;4877904;29;20990;-75
2023/03/15 06:09:12;;;;;;;65.00;24.77;;;0.40;99.90;;;-0.92;100.00;97340.28;4876760;29;20432;-74
2023/03/15 06:11:39;;;;;;;85.47;27.93;;;0.40;99.90;;;-0.90;100.00;97335.69;4877434;29;20491;-75
2023/03/15 06:14:05;;;;;;;77.15;26.00;;;0.40;99.90;;;-0.88;100.00;97342.31;4877726;29;20499;-75
2023/03/15 06:16:31;;;;;;;81.95;25.77;;;0.40;99.90;;;-0.83;100.00;97352.19;4877493;29;20495;-76
2023/03/15 06:18:57;;;;;;;82.35;26.30;;;0.50;99.90;;;-0.79;100.00;97354.25;4877359;29;20421;-76
2023/03/15 06:21:23;;;;;;;79.63;26.38;;;0.50;99.90;;;-0.72;100.00;97350.91;4877248;29;20417;-76
2023/03/15 06:23:49;;;;;;;75.05;26.63;;;0.60;99.90;;;-0.70;100.00;97347.16;4877352;29;20919;-76
2023/03/15 06:26:17;;;;;;;76.13;26.35;;;0.60;99.90;;;-0.67;100.00;97356.38;4877611;29;20471;-76
2023/03/15 06:28:45;;;;;;;80.85;27.30;;;0.60;99.90;;;-0.53;100.00;97358.97;4877682;29;20431;-78
2023/03/15 06:31:12;;;;;;;74.28;26.83;;;0.70;99.90;;;-0.55;100.00;97355.75;4878818;29;20445;-77
2023/03/15 06:33:39;;;;;;;63.83;23.67;;;0.70;99.90;;;-0.49;100.00;97359.41;4877152;29;20420;-75
2023/03/15 06:36:06;;;;;;;78.68;25.48;;;0.80;99.90;;;-0.40;100.00;97366.94;4877501;29;20937;-77
2023/03/15 06:38:33;;;;;;;68.82;24.70;;;0.90;99.90;;;-0.38;100.00;97371.16;4877321;29;20429;-77
2023/03/15 06:41:00;;;;;;;71.50;24.42;;;0.90;99.90;;;-0.31;100.00;97365.03;4877284;29;20416;-77
2023/03/15 06:43:26;;;;;;;70.10;24.33;;;0.90;99.90;;;-0.30;100.00;97371.03;4877067;29;20417;-78
2023/03/15 06:45:54;;;;;;;72.07;25.48;;;0.90;99.90;;;-0.29;100.00;97370.03;4877289;29;20425;-78
2023/03/15 06:48:20;;;;;;;67.70;24.35;;;1.00;99.90;;;-0.26;100.00;97374.88;4877275;29;20451;-77
2023/03/15 06:50:46;;;;;;;64.38;23.15;;;1.00;99.90;;;-0.25;100.00;97372.09;4877094;29;20468;-76
2023/03/15 06:53:13;;;;;;;64.10;22.50;;;1.00;99.90;;;-0.22;100.00;97381.31;4877019;29;20419;-77
2023/03/15 06:55:39;;;;;;;62.10;22.20;;;1.00;99.90;;;-0.20;100.00;97374.94;4877131;29;20903;-77
2023/03/15 06:58:05;;;;;;;62.78;22.13;;;1.00;99.90;;;-0.10;100.00;97379.88;4877125;29;20424;-76
2023/03/15 07:00:31;;;;;;;59.17;21.25;;;1.10;99.90;;;-0.03;100.00;97375.53;4876916;29;20408;-77
2023/03/15 07:02:58;;;;;;;58.30;20.15;;;1.20;99.90;;;0.02;100.00;97377.56;4876568;29;20417;-77
2023/03/15 07:05:24;;;;;;;54.53;20.25;;;1.20;99.90;;;0.17;100.00;97379.13;4877270;29;20493;-77
2023/03/15 07:07:50;;;;;;;54.92;19.23;;;1.40;99.90;;;0.12;100.00;97378.91;4877094;29;20413;-77
2023/03/15 07:10:16;;;;;;;56.47;19.10;;;1.30;99.90;;;0.21;100.00;97374.38;4881491;29;21006;-77
2023/03/15 07:12:42;;;;;;;57.60;18.60;;;1.40;99.90;;;0.35;100.00;97387.34;4876705;29;20419;-78
2023/03/15 07:15:10;;;;;;;48.33;17.73;;;1.60;99.90;;;0.44;100.00;97385.41;4876849;29;20420;-77
2023/03/15 07:17:36;;;;;;;55.35;17.77;;;1.60;99.90;;;0.32;100.00;97381.69;4876844;29;20408;-78
2023/03/15 07:20:05;;;;;;;45.25;16.42;;;1.50;99.90;;;0.52;100.00;97380.06;4880869;29;20419;-77
2023/03/15 07:22:31;;;;;;;47.10;16.55;;;1.60;99.90;;;0.63;100.00;97382.16;4890872;29;20421;-77
2023/03/15 07:24:58;;;;;;;43.13;14.95;;;1.80;99.90;;;0.56;100.00;97390.91;4879447;29;20578;-76
2023/03/15 07:27:24;;;;;;;38.85;14.13;;;1.70;99.90;;;0.56;100.00;97390.91;4895147;29;20419;-76
2023/03/15 07:29:49;;;;;;;43.67;14.35;;;1.70;99.90;;;0.59;100.00;97393.97;4895104;29;20426;-76
2023/03/15 07:32:16;;;;;;;43.30;13.75;;;1.80;99.90;;;0.60;100.00;97395.53;4893969;29;20427;-77
2023/03/15 07:34:42;;;;;;;37.60;13.83;;;1.80;99.90;;;0.64;100.00;97401.19;4891297;29;21056;-77
2023/03/15 07:37:09;;;;;;;31.08;12.70;;;1.80;99.90;;;0.82;100.00;97406.78;4895036;29;20422;-77
2023/03/15 07:39:35;;;;;;;38.33;13.88;;;1.90;99.90;;;0.87;100.00;97408.78;4899857;29;20766;-77
2023/03/15 07:42:01;;;;;;;41.70;13.03;;;2.00;99.90;;;0.75;100.00;97398.88;4890026;29;20458;-77
2023/03/15 07:44:27;;;;;;;39.58;12.98;;;2.00;99.90;;;0.79;100.00;97396.72;4903658;29;20911;-76
2023/03/15 07:46:54;;;;;;;36.50;13.50;;;2.00;99.90;;;1.02;100.00;97412.91;4896435;29;20480;-75
2023/03/15 07:49:20;;;;;;;31.65;12.45;;;2.10;99.90;;;0.95;100.00;97408.66;4896763;29;20442;-76
2023/03/15 07:51:46;;;;;;;34.03;11.57;;;2.10;99.90;;;0.98;100.00;97409.06;4893355;29;20542;-75
2023/03/15 07:54:14;;;;;;;38.53;11.50;;;2.10;99.90;;;1.04;100.00;97405.72;4890120;29;20803;-77
2023/03/15 07:56:40;;;;;;;33.70;12.45;;;2.20;99.90;;;1.07;100.00;97404.53;4901214;29;20486;-76
2023/03/15 07:59:06;;;;;;;30.40;11.60;;;2.30;99.90;;;1.02;100.00;97415.53;4893112;29;20423;-76
2023/03/15 08:01:32;;;;;;;25.38;10.80;;;2.20;99.90;;;1.15;100.00;97415.59;4890931;29;20489;-75
2023/03/15 08:03:58;;;;;;;33.20;11.82;;;2.20;99.90;;;1.36;100.00;97411.31;4891835;29;20463;-75
2023/03/15 08:06:24;;;;;;;28.63;10.93;;;2.40;99.90;;;1.31;100.00;97405.88;4903220;29;20449;-75
2023/03/15 08:08:50;;;;;;;26.08;10.20;;;2.50;99.90;;;1.30;100.00;97415.50;4901014;29;20805;-74
2023/03/15 08:11:20;;;;;;;31.23;9.93;;;2.50;99.90;;;1.33;100.00;97406.50;4937176;23;20436;-76
2023/03/15 08:13:46;;;;;;;31.17;10.23;;;2.40;99.90;;;1.33;100.00;97417.75;4926463;28;20893;-76
2023/03/15 08:16:12;;;;;;;34.47;11.38;;;2.50;99.90;;;1.71;100.00;97412.91;4913420;29;20439;-75
2023/03/15 08:18:38;;;;;;;23.33;9.73;;;2.80;99.90;;;1.62;100.00;97415.88;4915460;29;20948;-76
2023/03/15 08:21:04;;;;;;;30.58;9.98;;;2.70;99.90;;;1.78;100.00;97412.94;4909394;29;20462;-73
2023/03/15 08:23:30;;;;;;;33.10;10.43;;;2.90;99.90;;;2.03;100.00;97413.25;4915309;29;20500;-75
2023/03/15 08:25:56;;;;;;;27.65;10.35;;;3.10;99.90;;;2.19;100.00;97413.66;4927877;29;20427;-72
2023/03/15 08:28:24;;;;;;;23.15;8.68;;;3.30;99.90;;;2.12;100.00;97415.47;4918371;29;20520;-74
2023/03/15 08:30:50;;;;;;;21.92;8.18;;;3.20;99.90;;;2.13;100.00;97418.88;4905837;29;20770;-74
2023/03/15 08:33:15;;;;;;;22.58;9.13;;;3.20;99.90;;;2.44;100.00;97426.19;4908720;29;20463;-75
2023/03/15 08:35:42;;;;;;;25.23;8.57;;;3.30;99.90;;;2.69;100.00;97416.78;4921860;29;20545;-75
2023/03/15 08:38:08;;;;;;;28.52;7.63;;;3.60;99.90;;;2.48;100.00;97419.56;4922847;29;20540;-76
2023/03/15 08:40:35;;;;;;;24.58;7.63;;;3.50;99.90;;;2.39;100.00;97433.81;4926517;29;20413;-75
2023/03/15 08:43:01;;;;;;;25.60;7.68;;;3.50;99.90;;;2.46;100.00;97432.84;4929542;29;20407;-73
2023/03/15 08:45:28;;;;;;;21.65;7.00;;;3.50;99.90;;;2.59;100.00;97426.81;4919950;29;20951;-75
2023/03/15 08:47:55;;;;;;;12.00;6.15;;;3.60;99.90;;;2.63;100.00;97420.19;4922172;29;20938;-76
2023/03/15 08:50:20;;;;;;;20.00;7.25;;;3.70;99.90;;;2.95;100.00;97424.63;4920462;29;20444;-74
2023/03/15 08:52:46;;;;;;;21.58;7.47;;;3.90;99.90;;;3.23;100.00;97434.88;4919352;29;20938;-74
2023/03/15 08:55:13;;;;;;;19.10;6.90;;;4.20;99.90;;;3.25;100.00;97430.22;4913363;29;20473;-75
2023/03/15 08:57:39;;;;;;;19.20;6.80;;;4.30;99.90;;;3.27;100.00;97430.03;4911952;29;20428;-75
2023/03/15 09:00:08;;;;;;;13.02;7.05;;;4.30;99.90;;;3.48;100.00;97427.16;4913335;29;20986;-76
2023/03/15 09:02:36;;;;;;;15.65;6.05;;;4.50;99.90;;;3.31;100.00;97431.22;4916009;29;20497;-74
2023/03/15 09:05:03;;;;;;;13.77;6.40;;;4.40;99.90;;;3.54;100.00;97436.81;4912903;29;20971;-74
2023/03/15 09:07:29;;;;;;;20.08;6.65;;;4.50;99.90;;;3.72;100.00;97439.59;4914394;29;20425;-73
2023/03/15 09:09:56;;;;;;;15.27;5.93;;;4.70;99.90;;;3.77;100.00;97442.38;4916382;29;20484;-73
2023/03/15 09:12:22;;;;;;;27.93;6.97;;;4.70;99.90;;;4.00;100.00;97451.56;4916153;29;20429;-76
2023/03/15 09:14:48;;;;;;;14.95;4.90;;;4.90;99.90;;;4.04;100.00;97452.78;4914920;29;20923;-78
2023/03/15 09:17:14;;;;;;;18.50;6.43;;;5.10;99.90;;;4.31;100.00;97454.25;4916104;29;20520;-73
2023/03/15 09:19:41;;;;;;;12.93;5.27;;;5.20;99.90;;;4.11;100.00;97456.19;4916286;29;20422;-73
2023/03/15 09:22:07;;;;;;;12.98;4.97;;;5.10;99.90;;;3.80;100.00;97462.13;4912576;29;20534;-71
2023/03/15 09:24:33;;;;;;;17.43;5.53;;;5.00;99.90;;;4.21;100.00;97462.56;4915565;29;20417;-75
2023/03/15 09:26:59;;;;;;;12.10;4.65;;;5.10;99.90;;;4.02;100.00;97465.28;4905321;29;21025;-76
2023/03/15 09:29:25;;;;;;;11.10;4.30;;;5.00;99.90;;;4.08;100.00;97462.63;4907634;29;20469;-75
2023/03/15 09:31:51;;;;;;;11.90;3.92;;;5.10;99.90;;;4.07;100.00;97465.44;4929332;23;20904;-73
2023/03/15 09:34:17;;;;;;;10.02;3.97;;;5.00;99.90;;;3.93;100.00;97469.13;4913425;29;20476;-75
2023/03/15 09:36:44;;;;;;;12.75;3.83;;;4.90;99.90;;;3.74;100.00;97471.63;4911073;29;20934;-74
2023/03/15 09:39:10;;;;;;;16.83;4.43;;;4.80;99.90;;;3.98;100.00;97475.38;4913201;29;20443;-73
2023/03/15 09:41:43;;;;;;;13.15;4.55;;;5.00;99.90;;;4.10;100.00;97478.94;4897394;29;20427;-77
2023/03/15 09:44:31;;;;;;;12.90;4.70;;;5.10;99.90;;;4.26;100.00;97470.63;4894135;29;20995;-75
2023/03/15 09:47:10;;;;;;;15.93;3.72;;;5.30;99.90;;;4.15;100.00;97473.88;4900863;29;20826;-75
2023/03/15 09:49:45;;;;;;;12.93;3.78;;;5.20;99.90;;;3.99;100.00;97471.72;4896747;29;20431;-75
2023/03/15 09:52:28;;;;;;;11.05;4.25;;;5.10;99.90;;;4.23;100.00;97476.25;4896470;29;20411;-76
2023/03/15 09:54:59;;;;;;;7.57;3.47;;;5.10;99.90;;;4.18;100.00;97480.53;4894930;29;20529;-76
2023/03/15 09:57:36;;;;;;;10.93;3.70;;;5.20;99.90;;;4.09;100.00;97485.19;4892839;29;20603;-76
2023/03/15 10:00:10;;;;;;;7.65;3.10;;;5.20;99.90;;;4.32;100.00;97483.88;4894885;29;20488;-76
2023/03/15 10:02:41;;;;;;;14.27;4.03;;;5.30;99.90;;;4.75;100.00;97486.66;4896245;29;20430;-76
2023/03/15 10:05:12;;;;;;;7.32;3.08;;;5.70;99.90;;;4.79;100.00;97472.13;4891530;29;20436;-76
2023/03/15 10:07:40;;;;;;;5.78;2.83;;;5.80;99.90;;;4.88;100.00;97470.88;4888695;29;20437;-76
2023/03/15 10:10:18;;;;;;;14.50;3.00;;;5.80;99.90;;;5.11;100.00;97475.56;4894588;29;20576;-75
2023/03/15 10:12:50;;;;;;;8.70;3.10;;;6.00;99.90;;;5.61;100.00;97469.25;4885717;29;20453;-76
2023/03/15 10:15:33;;;;;;;5.88;2.38;;;6.60;99.90;;;6.11;100.00;97474.38;4894729;29;20843;-75